Time;durP1;ratioP1;P1;durP2;ratioP2;P2;SDS_P1;SDS_P2;PMS_P1;PMS_P2;Temp;Humidity;BMP_temperature;BMP_pressure;BME280_temperature;BME280_humidity;BME280_pressure;Samples;Min_cycle;Max_cycle;Signal;HPM_P1;HPM_P2
2023/09/24 00:02:19;;;;;;;0.00;0.00;;;23.30;99.30;;;;;;5014331;28;20421;-79
2023/09/24 00:04:46;;;;;;;0.00;0.00;;;23.30;99.30;;;;;;5050258;28;20413;-80
2023/09/24 00:07:15;;;;;;;0.00;0.00;;;23.30;99.20;;;;;;5014875;28;20413;-80
2023/09/24 00:09:42;;;;;;;0.00;0.00;;;23.30;99.10;;;;;;5045097;28;20435;-81
2023/09/24 00:12:08;;;;;;;0.00;0.00;;;23.20;99.00;;;;;;5031058;28;20432;-80
2023/09/24 00:14:34;;;;;;;0.00;0.00;;;23.30;99.00;;;;;;5029934;28;20898;-80
2023/09/24 00:17:00;;;;;;;0.00;0.00;;;23.20;98.90;;;;;;5061910;28;20420;-80
2023/09/24 00:19:27;;;;;;;0.00;0.00;;;23.30;98.90;;;;;;5044291;28;20505;-80
2023/09/24 00:21:53;;;;;;;0.00;0.00;;;23.30;99.00;;;;;;5039282;28;20417;-80
2023/09/24 00:24:20;;;;;;;0.00;0.00;;;23.30;99.00;;;;;;5049889;28;20486;-81
2023/09/24 00:26:46;;;;;;;0.00;0.00;;;23.30;98.90;;;;;;5063515;28;20953;-80
2023/09/24 00:29:16;;;;;;;0.00;0.00;;;23.30;98.80;;;;;;5049320;28;20930;-81
2023/09/24 00:31:42;;;;;;;0.00;0.00;;;23.30;98.90;;;;;;5057470;28;20415;-80
2023/09/24 00:34:09;;;;;;;0.00;0.00;;;23.30;98.80;;;;;;5048255;28;20435;-80
2023/09/24 00:36:35;;;;;;;0.00;0.00;;;23.30;98.80;;;;;;5043995;28;20499;-80
2023/09/24 00:42:42;;;;;;;0.00;0.00;;;23.30;98.60;;;;;;5043721;28;20413;-78
2023/09/24 00:45:12;;;;;;;0.00;0.00;;;23.30;98.80;;;;;;5029839;28;20413;-78
2023/09/24 00:47:42;;;;;;;0.00;0.00;;;23.30;98.50;;;;;;5059137;28;20752;-78
2023/09/24 00:50:10;;;;;;;0.00;0.00;;;23.30;98.50;;;;;;5046852;28;20409;-78
2023/09/24 00:52:37;;;;;;;0.00;0.00;;;23.30;98.50;;;;;;5047779;28;20716;-78
2023/09/24 00:55:06;;;;;;;0.00;0.00;;;23.30;98.80;;;;;;5050398;28;20425;-78
2023/09/24 00:57:35;;;;;;;0.00;0.00;;;23.30;98.30;;;;;;5051779;28;20821;-78
2023/09/24 01:00:08;;;;;;;0.00;0.00;;;23.30;98.40;;;;;;5029832;28;20522;-79
2023/09/24 01:02:47;;;;;;;0.00;0.00;;;23.30;98.30;;;;;;5061961;28;20779;-79
2023/09/24 01:05:14;;;;;;;0.00;0.00;;;23.30;98.40;;;;;;5032164;28;20433;-81
2023/09/24 01:07:42;;;;;;;0.00;0.00;;;23.30;98.30;;;;;;5064123;28;20421;-80
2023/09/24 01:10:11;;;;;;;0.00;0.00;;;23.30;98.50;;;;;;5046219;28;20421;-81
2023/09/24 01:12:40;;;;;;;0.00;0.00;;;23.30;98.50;;;;;;5030704;28;20419;-80
2023/09/24 01:15:13;;;;;;;0.00;0.00;;;23.30;98.40;;;;;;5022030;28;20413;-80
2023/09/24 01:17:39;;;;;;;0.00;0.00;;;23.30;98.40;;;;;;5017991;28;20421;-81
2023/09/24 01:20:12;;;;;;;0.00;0.00;;;23.30;98.30;;;;;;5010687;28;20775;-81
2023/09/24 01:22:42;;;;;;;0.00;0.00;;;23.20;98.20;;;;;;5048351;28;20475;-81
2023/09/24 01:25:11;;;;;;;0.00;0.00;;;23.30;98.30;;;;;;5046909;28;20492;-81
2023/09/24 01:27:38;;;;;;;0.00;0.00;;;23.20;98.30;;;;;;5047761;28;20456;-78
2023/09/24 01:30:06;;;;;;;0.00;0.00;;;23.20;98.20;;;;;;5051615;28;20422;-77
2023/09/24 01:32:32;;;;;;;0.00;0.00;;;23.20;98.20;;;;;;5044062;28;20425;-78
2023/09/24 01:35:03;;;;;;;0.00;0.00;;;23.20;98.30;;;;;;5049257;28;20424;-78
2023/09/24 01:37:30;;;;;;;0.00;0.00;;;23.20;98.20;;;;;;5046015;28;20459;-78
2023/09/24 01:39:57;;;;;;;0.00;0.00;;;23.20;98.00;;;;;;5012595;28;20405;-78
2023/09/24 01:42:23;;;;;;;0.00;0.00;;;23.20;98.10;;;;;;5051721;28;20457;-78
2023/09/24 01:44:50;;;;;;;0.00;0.00;;;23.20;98.20;;;;;;5049780;28;20906;-78
2023/09/24 01:47:16;;;;;;;0.00;0.00;;;23.20;98.20;;;;;;5040639;28;20934;-78
2023/09/24 01:49:43;;;;;;;0.00;0.00;;;23.10;98.00;;;;;;5060255;28;20464;-77
2023/09/24 01:52:09;;;;;;;0.00;0.00;;;23.20;98.10;;;;;;5048701;28;20910;-78
2023/09/24 01:54:35;;;;;;;0.00;0.00;;;23.20;98.10;;;;;;5048682;28;20421;-77
2023/09/24 01:57:02;;;;;;;0.00;0.00;;;23.10;97.80;;;;;;5049158;28;20425;-81
2023/09/24 01:59:30;;;;;;;0.00;0.00;;;23.10;97.80;;;;;;5029813;28;20418;-81
2023/09/24 02:01:56;;;;;;;0.00;0.00;;;23.10;97.80;;;;;;5044296;28;20433;-81
2023/09/24 02:04:23;;;;;;;0.00;0.00;;;23.10;97.90;;;;;;5047550;28;20413;-80
2023/09/24 02:06:49;;;;;;;0.00;0.00;;;23.10;97.90;;;;;;5046379;28;20474;-80
2023/09/24 02:09:16;;;;;;;0.00;0.00;;;23.10;97.80;;;;;;5047657;28;20413;-80
2023/09/24 02:11:42;;;;;;;0.00;0.00;;;23.10;97.90;;;;;;5061286;28;20467;-80
2023/09/24 02:14:09;;;;;;;0.00;0.00;;;23.10;97.80;;;;;;5047140;28;21176;-80
2023/09/24 02:16:35;;;;;;;0.00;0.00;;;23.10;97.80;;;;;;5062046;28;20413;-80
2023/09/24 02:19:02;;;;;;;0.00;0.00;;;23.10;97.80;;;;;;5061287;28;20417;-80
2023/09/24 02:21:29;;;;;;;0.00;0.00;;;23.10;97.70;;;;;;5048049;28;20420;-80
2023/09/24 02:23:55;;;;;;;0.00;0.00;;;23.00;97.60;;;;;;5043328;28;20500;-80
2023/09/24 02:26:22;;;;;;;0.00;0.00;;;23.00;97.60;;;;;;5027784;28;20419;-80
2023/09/24 02:28:48;;;;;;;0.00;0.00;;;23.00;97.80;;;;;;5047800;28;20444;-80
2023/09/24 02:31:15;;;;;;;0.00;0.00;;;23.00;97.80;;;;;;5045531;28;20751;-80
2023/09/24 02:33:44;;;;;;;0.00;0.00;;;23.00;97.70;;;;;;5024639;28;20467;-80
2023/09/24 02:36:12;;;;;;;0.00;0.00;;;23.00;97.60;;;;;;5045862;28;20929;-81
2023/09/24 02:38:39;;;;;;;0.00;0.00;;;23.10;97.70;;;;;;5049562;28;20413;-77
2023/09/24 02:41:05;;;;;;;0.00;0.00;;;23.00;97.70;;;;;;5053167;28;20907;-76
2023/09/24 02:43:32;;;;;;;0.00;0.00;;;23.10;97.70;;;;;;5034680;28;20474;-76
2023/09/24 02:45:59;;;;;;;0.00;0.00;;;23.00;97.40;;;;;;5049984;28;20849;-80
2023/09/24 02:48:25;;;;;;;0.00;0.00;;;23.10;97.60;;;;;;5025548;28;20434;-80
2023/09/24 02:50:52;;;;;;;0.00;0.00;;;23.10;97.30;;;;;;5046820;28;20455;-79
2023/09/24 02:53:18;;;;;;;0.00;0.00;;;23.10;97.20;;;;;;5027691;28;21189;-79
2023/09/24 02:55:45;;;;;;;0.00;0.00;;;23.10;97.00;;;;;;5038400;28;20448;-79
2023/09/24 02:58:13;;;;;;;0.00;0.00;;;23.10;96.80;;;;;;5043671;28;20432;-79
2023/09/24 03:00:42;;;;;;;0.00;0.00;;;23.10;96.80;;;;;;5046931;28;20455;-79
2023/09/24 03:03:15;;;;;;;0.00;0.00;;;23.10;96.70;;;;;;5029287;28;20413;-79
2023/09/24 03:05:41;;;;;;;0.00;0.00;;;23.10;96.80;;;;;;5024445;28;20421;-79
2023/09/24 03:08:09;;;;;;;0.00;0.00;;;23.10;96.80;;;;;;5029596;28;20435;-79
2023/09/24 03:10:36;;;;;;;0.00;0.00;;;23.10;96.70;;;;;;5028358;28;20508;-80
2023/09/24 03:13:04;;;;;;;0.00;0.00;;;23.00;96.90;;;;;;5057242;28;20413;-80
2023/09/24 03:15:31;;;;;;;0.00;0.00;;;23.00;96.80;;;;;;5031925;28;20418;-80
2023/09/24 03:17:59;;;;;;;0.00;0.00;;;23.00;96.60;;;;;;5044955;28;20403;-79
2023/09/24 03:20:27;;;;;;;0.00;0.00;;;23.00;96.50;;;;;;5028480;28;20409;-80
2023/09/24 03:23:02;;;;;;;0.00;0.00;;;23.00;96.60;;;;;;5048981;28;20440;-80
2023/09/24 03:25:29;;;;;;;0.00;0.00;;;23.00;97.00;;;;;;5045097;28;20927;-79
2023/09/24 03:27:58;;;;;;;0.00;0.00;;;23.00;96.70;;;;;;5049363;28;20431;-79
2023/09/24 03:30:25;;;;;;;0.00;0.00;;;22.90;96.50;;;;;;5046428;28;20450;-78
2023/09/24 03:32:53;;;;;;;0.00;0.00;;;22.90;96.50;;;;;;5048669;28;20516;-78
2023/09/24 03:35:25;;;;;;;0.00;0.00;;;22.90;96.50;;;;;;5043467;28;20417;-78
2023/09/24 03:37:53;;;;;;;0.00;0.00;;;22.90;96.60;;;;;;5029972;28;20408;-80
2023/09/24 03:40:24;;;;;;;0.00;0.00;;;22.90;96.90;;;;;;5050103;28;20466;-79
2023/09/24 03:42:51;;;;;;;0.00;0.00;;;22.80;97.00;;;;;;5047366;28;20425;-79
2023/09/24 03:45:22;;;;;;;0.00;0.00;;;22.80;96.70;;;;;;5029574;28;20421;-79
2023/09/24 03:47:52;;;;;;;0.00;0.00;;;22.80;96.40;;;;;;5046343;28;20413;-79
2023/09/24 03:50:18;;;;;;;0.00;0.00;;;22.80;96.30;;;;;;5033444;28;20409;-77
2023/09/24 03:52:48;;;;;;;0.00;0.00;;;22.90;95.90;;;;;;5052101;28;20859;-77
2023/09/24 03:55:21;;;;;;;0.00;0.00;;;22.90;95.70;;;;;;5051953;28;20421;-79
2023/09/24 03:57:48;;;;;;;0.00;0.00;;;22.90;95.60;;;;;;5054634;28;20398;-79
2023/09/24 04:00:18;;;;;;;0.00;0.00;;;23.00;95.50;;;;;;5047326;28;20410;-77
2023/09/24 04:02:49;;;;;;;0.00;0.00;;;23.00;95.60;;;;;;5032489;28;20782;-77
2023/09/24 04:05:24;;;;;;;0.00;0.00;;;23.00;95.50;;;;;;5033066;28;20494;-77
2023/09/24 04:07:55;;;;;;;0.00;0.00;;;23.10;95.70;;;;;;5034188;28;20910;-77
2023/09/24 04:10:27;;;;;;;0.00;0.00;;;23.10;95.30;;;;;;5049782;28;20463;-76
2023/09/24 04:12:53;;;;;;;0.00;0.00;;;23.10;95.70;;;;;;5030899;28;20428;-76
2023/09/24 04:15:29;;;;;;;0.00;0.00;;;23.20;95.40;;;;;;5029733;28;20747;-77
2023/09/24 04:18:00;;;;;;;0.00;0.00;;;23.20;95.40;;;;;;5046770;28;20417;-76
2023/09/24 04:20:29;;;;;;;0.00;0.00;;;23.20;95.20;;;;;;5027631;28;21172;-76
2023/09/24 04:22:56;;;;;;;0.00;0.00;;;23.30;95.00;;;;;;5045738;28;20460;-76
2023/09/24 04:25:24;;;;;;;0.00;0.00;;;23.40;95.00;;;;;;5045217;28;21164;-76
2023/09/24 04:27:51;;;;;;;0.00;0.00;;;23.40;94.70;;;;;;5024434;28;21084;-77
2023/09/24 04:30:19;;;;;;;0.00;0.00;;;23.50;94.60;;;;;;5060146;28;20438;-77
2023/09/24 04:32:54;;;;;;;0.00;0.00;;;23.50;94.50;;;;;;5046083;28;20512;-77
2023/09/24 04:35:21;;;;;;;0.00;0.00;;;23.60;93.80;;;;;;5044324;28;20419;-77
2023/09/24 04:37:50;;;;;;;0.00;0.00;;;23.70;93.80;;;;;;5029270;28;20493;-77
2023/09/24 04:40:16;;;;;;;0.00;0.00;;;23.80;93.60;;;;;;5049904;28;21085;-77
2023/09/24 04:42:45;;;;;;;0.00;0.00;;;23.80;93.60;;;;;;5052482;28;20437;-79
2023/09/24 04:45:14;;;;;;;0.00;0.00;;;23.80;93.50;;;;;;5051095;28;20424;-79
2023/09/24 04:47:41;;;;;;;0.00;0.00;;;23.80;93.60;;;;;;5022739;28;20417;-79
2023/09/24 04:50:13;;;;;;;0.00;0.00;;;23.90;93.60;;;;;;5026379;28;20473;-81
2023/09/24 04:52:41;;;;;;;0.00;0.00;;;23.90;93.90;;;;;;5034505;28;20466;-80
2023/09/24 04:55:09;;;;;;;0.00;0.00;;;23.90;94.20;;;;;;5058274;28;20417;-79
2023/09/24 04:57:36;;;;;;;0.00;0.00;;;23.90;94.00;;;;;;5049609;28;20397;-80
2023/09/24 05:00:04;;;;;;;0.00;0.00;;;23.90;94.00;;;;;;5032131;28;20418;-80
2023/09/24 05:02:30;;;;;;;0.00;0.00;;;24.00;94.40;;;;;;5044793;28;20446;-79
2023/09/24 05:04:56;;;;;;;0.00;0.00;;;24.00;94.80;;;;;;5028871;28;20506;-78
2023/09/24 05:07:23;;;;;;;0.00;0.00;;;24.00;94.80;;;;;;5060523;28;20415;-78
2023/09/24 05:09:53;;;;;;;0.00;0.00;;;24.00;95.00;;;;;;5032424;28;20876;-79
2023/09/24 05:12:20;;;;;;;0.00;0.00;;;24.10;94.90;;;;;;5032764;28;20414;-81
2023/09/24 05:14:46;;;;;;;0.00;0.00;;;24.10;94.70;;;;;;5048228;28;20413;-80
2023/09/24 05:17:13;;;;;;;0.00;0.00;;;24.10;95.20;;;;;;5021523;28;20406;-80
2023/09/24 05:19:39;;;;;;;0.00;0.00;;;24.20;95.50;;;;;;5029590;28;20417;-80
2023/09/24 05:22:08;;;;;;;0.00;0.00;;;24.20;95.80;;;;;;5047898;28;20428;-80
2023/09/24 05:24:37;;;;;;;0.00;0.00;;;24.30;95.90;;;;;;5047792;28;20423;-80
2023/09/24 05:27:04;;;;;;;0.00;0.00;;;24.30;96.50;;;;;;5048977;28;20479;-80
2023/09/24 05:29:30;;;;;;;0.00;0.00;;;24.40;96.60;;;;;;5032699;28;20405;-80
2023/09/24 05:31:56;;;;;;;0.00;0.00;;;24.40;96.60;;;;;;5049412;28;20853;-80
2023/09/24 05:34:23;;;;;;;0.00;0.00;;;24.40;97.10;;;;;;5047743;28;20408;-80
2023/09/24 05:36:52;;;;;;;0.00;0.00;;;24.50;97.30;;;;;;5027473;28;20413;-80
2023/09/24 05:39:18;;;;;;;0.00;0.00;;;24.50;97.10;;;;;;5052336;28;20920;-80
2023/09/24 05:41:45;;;;;;;0.00;0.00;;;24.50;96.80;;;;;;5063718;28;20937;-80
2023/09/24 05:44:12;;;;;;;0.00;0.00;;;24.50;96.60;;;;;;5030282;28;20490;-80
2023/09/24 05:46:39;;;;;;;0.00;0.00;;;24.60;95.80;;;;;;5045588;28;20463;-80
2023/09/24 05:49:06;;;;;;;0.00;0.00;;;24.60;96.10;;;;;;5041361;28;20427;-79
2023/09/24 05:51:32;;;;;;;0.00;0.00;;;24.60;95.10;;;;;;5007465;28;20444;-80
2023/09/24 05:53:58;;;;;;;0.00;0.00;;;24.60;95.00;;;;;;5058253;28;20441;-80
2023/09/24 05:56:25;;;;;;;0.10;0.10;;;24.70;95.20;;;;;;5029159;28;20431;-80
2023/09/24 05:58:51;;;;;;;0.00;0.00;;;24.70;94.50;;;;;;5028132;28;20424;-80
2023/09/24 06:01:17;;;;;;;0.00;0.00;;;24.80;94.70;;;;;;5007604;28;20478;-80
2023/09/24 06:03:44;;;;;;;0.00;0.00;;;24.90;94.50;;;;;;5043946;28;20420;-80
2023/09/24 06:06:10;;;;;;;0.00;0.00;;;24.90;94.60;;;;;;5027371;28;20445;-81
2023/09/24 06:08:37;;;;;;;0.00;0.00;;;24.90;95.00;;;;;;5023523;28;20407;-81
2023/09/24 06:11:04;;;;;;;0.00;0.00;;;25.00;94.70;;;;;;5024033;28;20469;-80
2023/09/24 06:13:32;;;;;;;0.05;0.05;;;25.10;95.00;;;;;;5025039;28;20407;-81
2023/09/24 06:16:01;;;;;;;0.00;0.00;;;25.10;95.10;;;;;;5026870;28;20864;-79
2023/09/24 06:18:28;;;;;;;0.00;0.00;;;25.20;95.00;;;;;;5025618;28;20512;-79
2023/09/24 06:20:56;;;;;;;0.05;0.05;;;25.20;94.40;;;;;;5037819;28;20928;-80
2023/09/24 06:23:22;;;;;;;0.00;0.00;;;25.20;95.20;;;;;;5043920;28;20414;-79
2023/09/24 06:25:57;;;;;;;0.00;0.00;;;25.30;94.60;;;;;;5026722;28;20411;-80
2023/09/24 06:28:24;;;;;;;0.00;0.00;;;25.30;94.30;;;;;;5041279;28;20420;-80
2023/09/24 06:31:09;;;;;;;0.00;0.00;;;25.40;94.60;;;;;;5057311;28;20545;-79
2023/09/24 06:33:35;;;;;;;0.00;0.00;;;25.50;94.40;;;;;;5019558;28;20415;-79
2023/09/24 06:36:03;;;;;;;0.00;0.00;;;25.50;94.70;;;;;;5059805;28;20395;-79
2023/09/24 06:38:32;;;;;;;0.00;0.00;;;25.60;95.20;;;;;;5039237;28;20409;-79
2023/09/24 06:41:04;;;;;;;0.00;0.00;;;25.70;95.00;;;;;;5046519;28;20414;-79
2023/09/24 06:43:33;;;;;;;0.00;0.00;;;25.70;94.30;;;;;;5028909;28;20435;-79
2023/09/24 06:46:06;;;;;;;0.00;0.00;;;25.90;93.30;;;;;;5011369;28;20419;-81
2023/09/24 06:48:33;;;;;;;0.00;0.00;;;26.00;93.80;;;;;;5061380;28;20485;-80
2023/09/24 06:54:21;;;;;;;0.10;0.10;;;26.10;94.30;;;;;;5024523;28;20895;-80
2023/09/24 06:56:48;;;;;;;0.10;0.10;;;26.20;95.10;;;;;;5007237;28;20440;-80
2023/09/24 06:59:14;;;;;;;0.00;0.00;;;26.30;95.10;;;;;;4986922;28;20941;-79
2023/09/24 07:01:41;;;;;;;0.00;0.00;;;26.30;95.30;;;;;;4990640;28;20955;-79
2023/09/24 07:04:08;;;;;;;0.00;0.00;;;26.40;95.00;;;;;;5008935;28;20405;-79
2023/09/24 07:06:35;;;;;;;0.05;0.05;;;26.50;95.30;;;;;;5033012;28;20499;-79
2023/09/24 07:09:02;;;;;;;0.00;0.00;;;26.60;93.90;;;;;;5023712;28;20474;-77
2023/09/24 07:11:38;;;;;;;0.00;0.00;;;26.70;94.50;;;;;;5005928;28;20516;-80
2023/09/24 07:14:09;;;;;;;0.10;0.10;;;26.70;94.00;;;;;;5008798;28;20498;-80
2023/09/24 07:16:36;;;;;;;0.10;0.10;;;26.80;94.80;;;;;;5021970;28;21133;-79
2023/09/24 07:19:03;;;;;;;0.00;0.00;;;26.90;94.30;;;;;;5009015;28;20420;-78
2023/09/24 07:21:31;;;;;;;0.10;0.10;;;27.00;95.50;;;;;;4997730;28;20444;-79
2023/09/24 07:23:59;;;;;;;0.10;0.10;;;27.00;95.20;;;;;;5019917;28;20416;-79
2023/09/24 07:26:26;;;;;;;0.05;0.05;;;27.10;94.90;;;;;;5005498;28;20444;-79
2023/09/24 07:28:53;;;;;;;0.08;0.08;;;27.20;95.40;;;;;;5005025;28;20424;-76
2023/09/24 07:31:22;;;;;;;0.00;0.00;;;27.30;95.10;;;;;;5004939;28;20413;-77
2023/09/24 07:33:52;;;;;;;0.00;0.00;;;27.40;95.70;;;;;;5000547;28;20408;-76
2023/09/24 07:36:18;;;;;;;0.10;0.10;;;27.40;94.70;;;;;;5000630;28;20409;-76
2023/09/24 07:38:45;;;;;;;0.10;0.10;;;27.50;95.20;;;;;;5010931;28;20404;-76
2023/09/24 07:41:12;;;;;;;0.10;0.10;;;27.60;95.10;;;;;;5002465;28;20443;-76
2023/09/24 07:43:44;;;;;;;0.00;0.00;;;27.60;95.20;;;;;;5000912;28;20428;-76
2023/09/24 07:46:12;;;;;;;0.10;0.10;;;27.80;93.90;;;;;;5016632;28;20474;-77
2023/09/24 07:48:39;;;;;;;0.00;0.00;;;28.00;94.10;;;;;;4999276;28;20478;-75
2023/09/24 07:51:06;;;;;;;0.10;0.10;;;28.00;94.40;;;;;;5000598;28;20420;-75
2023/09/24 07:53:32;;;;;;;0.10;0.10;;;28.00;93.70;;;;;;4996460;28;20451;-76
2023/09/24 07:56:11;;;;;;;0.00;0.00;;;28.10;94.60;;;;;;4993924;28;20440;-76
2023/09/24 07:58:40;;;;;;;0.10;0.10;;;28.10;94.30;;;;;;5027245;28;20491;-78
2023/09/24 08:01:14;;;;;;;0.10;0.10;;;28.20;93.90;;;;;;5018795;28;20428;-77
2023/09/24 08:03:45;;;;;;;0.10;0.10;;;28.30;93.60;;;;;;5007416;28;20912;-77
2023/09/24 08:06:12;;;;;;;0.10;0.10;;;28.30;93.80;;;;;;5016937;28;20422;-76
2023/09/24 08:08:38;;;;;;;0.10;0.10;;;28.40;93.30;;;;;;5013306;28;20488;-76
2023/09/24 08:11:04;;;;;;;0.00;0.00;;;28.40;93.40;;;;;;5012266;28;20831;-76
2023/09/24 08:13:31;;;;;;;0.00;0.00;;;28.40;92.70;;;;;;4989169;28;20416;-77
2023/09/24 08:15:57;;;;;;;0.10;0.10;;;28.50;92.10;;;;;;5003919;28;20527;-77
2023/09/24 08:18:25;;;;;;;0.10;0.10;;;28.60;92.00;;;;;;5013925;28;20445;-78
2023/09/24 08:20:55;;;;;;;0.00;0.00;;;28.70;92.20;;;;;;5016849;28;20405;-77
2023/09/24 08:23:23;;;;;;;0.00;0.00;;;28.80;91.10;;;;;;5022028;28;20432;-77
2023/09/24 08:25:51;;;;;;;0.10;0.10;;;28.80;92.00;;;;;;4988173;28;20496;-76
2023/09/24 08:28:18;;;;;;;0.10;0.10;;;28.80;91.10;;;;;;4997457;28;20436;-76
2023/09/24 08:30:46;;;;;;;0.10;0.10;;;28.90;95.80;;;;;;5008160;28;20459;-75
2023/09/24 08:33:12;;;;;;;0.10;0.10;;;29.00;97.40;;;;;;5002552;28;20419;-76
2023/09/24 08:35:39;;;;;;;0.10;0.10;;;29.10;99.00;;;;;;5003311;28;20404;-77
2023/09/24 08:38:07;;;;;;;0.10;0.10;;;29.20;99.90;;;;;;5019966;28;20497;-75
2023/09/24 08:40:39;;;;;;;0.10;0.10;;;29.30;99.90;;;;;;5007035;28;20440;-75
2023/09/24 08:43:18;;;;;;;0.10;0.10;;;29.40;99.90;;;;;;5000679;28;20435;-75
2023/09/24 08:45:47;;;;;;;0.10;0.10;;;29.50;99.90;;;;;;5005960;28;20459;-74
2023/09/24 08:48:14;;;;;;;0.08;0.08;;;29.40;99.90;;;;;;5005294;28;21202;-75
2023/09/24 08:50:42;;;;;;;0.10;0.10;;;29.40;99.90;;;;;;4986940;28;20439;-74
2023/09/24 08:53:13;;;;;;;0.10;0.10;;;29.40;99.90;;;;;;4990835;28;20422;-75
2023/09/24 08:55:46;;;;;;;0.10;0.10;;;29.40;99.90;;;;;;5000064;28;20442;-75
2023/09/24 08:58:13;;;;;;;0.10;0.10;;;29.30;99.90;;;;;;5022623;28;20812;-74
2023/09/24 09:00:40;;;;;;;0.10;0.10;;;29.30;99.90;;;;;;4994801;28;20462;-74
2023/09/24 09:03:07;;;;;;;0.10;0.10;;;29.30;99.90;;;;;;5005627;28;20432;-74
2023/09/24 09:05:38;;;;;;;0.10;0.10;;;29.40;99.90;;;;;;4986457;28;20420;-74
2023/09/24 09:08:05;;;;;;;0.10;0.10;;;29.40;99.90;;;;;;5002588;28;20521;-74
2023/09/24 09:10:37;;;;;;;0.10;0.10;;;29.50;99.90;;;;;;5005637;28;20904;-75
2023/09/24 09:13:18;;;;;;;0.10;0.10;;;29.60;99.90;;;;;;4989903;28;20576;-75
2023/09/24 09:15:46;;;;;;;0.10;0.10;;;29.70;99.90;;;;;;4983169;28;20427;-75
2023/09/24 09:18:26;;;;;;;0.10;0.10;;;29.80;99.90;;;;;;5004189;28;21147;-75
2023/09/24 09:21:00;;;;;;;0.10;0.10;;;29.80;99.90;;;;;;5022148;28;20419;-75
2023/09/24 09:23:44;;;;;;;0.10;0.10;;;30.00;99.90;;;;;;5001863;28;20418;-75
2023/09/24 09:26:10;;;;;;;0.10;0.10;;;30.10;99.90;;;;;;5002620;28;20412;-75
2023/09/24 09:28:38;;;;;;;0.10;0.10;;;30.20;99.90;;;;;;5006004;28;20410;-76
2023/09/24 09:31:11;;;;;;;0.10;0.10;;;30.30;99.90;;;;;;4989236;28;20781;-76
2023/09/24 09:33:45;;;;;;;0.10;0.10;;;30.40;99.90;;;;;;4979518;28;20400;-76
2023/09/24 09:36:27;;;;;;;0.13;0.13;;;30.50;99.90;;;;;;4988882;28;20421;-76
2023/09/24 09:38:58;;;;;;;0.10;0.10;;;30.60;99.90;;;;;;4990094;28;20423;-75
2023/09/24 09:41:25;;;;;;;0.10;0.10;;;30.80;99.90;;;;;;4990575;28;20505;-75
2023/09/24 09:43:53;;;;;;;0.10;0.10;;;31.00;99.90;;;;;;4987774;28;20424;-75
2023/09/24 09:46:23;;;;;;;0.03;0.03;;;31.10;99.90;;;;;;4990818;28;21167;-77
2023/09/24 09:48:58;;;;;;;0.10;0.10;;;31.20;99.90;;;;;;4987105;28;21007;-76
2023/09/24 09:51:43;;;;;;;0.10;0.10;;;31.30;99.90;;;;;;4980744;28;20423;-76
2023/09/24 09:54:12;;;;;;;0.10;0.10;;;31.40;99.90;;;;;;4971389;28;20414;-75
2023/09/24 09:56:40;;;;;;;0.10;0.10;;;31.50;99.90;;;;;;4993988;28;20803;-75
2023/09/24 09:59:08;;;;;;;0.10;0.10;;;31.70;99.90;;;;;;4988404;28;20487;-75
2023/09/24 10:01:35;;;;;;;0.10;0.10;;;31.70;99.90;;;;;;4987209;28;20422;-75
2023/09/24 10:04:07;;;;;;;0.10;0.10;;;31.90;99.90;;;;;;4985421;28;20418;-75
2023/09/24 10:06:37;;;;;;;0.10;0.10;;;32.00;99.90;;;;;;4966546;28;21109;-76
2023/09/24 10:09:26;;;;;;;0.20;0.20;;;32.10;99.90;;;;;;4987765;28;20848;-75
2023/09/24 10:11:56;;;;;;;0.10;0.10;;;32.30;99.90;;;;;;5004464;28;20438;-75
2023/09/24 10:14:39;;;;;;;0.10;0.10;;;32.40;99.90;;;;;;4989141;28;20420;-75
2023/09/24 10:17:25;;;;;;;0.15;0.15;;;32.40;99.90;;;;;;4973923;28;20411;-76
2023/09/24 10:19:58;;;;;;;0.10;0.10;;;32.40;99.90;;;;;;4963443;28;20432;-75
2023/09/24 10:22:34;;;;;;;0.10;0.10;;;32.50;99.90;;;;;;5000073;28;20576;-75
2023/09/24 10:25:39;;;;;;;0.10;0.10;;;32.40;99.90;;;;;;4989259;28;20481;-76
2023/09/24 10:28:11;;;;;;;0.10;0.10;;;32.50;99.90;;;;;;4983603;28;20410;-75
2023/09/24 10:31:04;;;;;;;0.10;0.10;;;32.50;99.90;;;;;;4985752;28;20437;-76
2023/09/24 10:34:03;;;;;;;0.10;0.10;;;32.50;99.90;;;;;;5001353;28;20464;-75
2023/09/24 10:36:33;;;;;;;0.10;0.10;;;32.40;99.90;;;;;;4983254;28;20474;-75
2023/09/24 10:39:13;;;;;;;0.10;0.10;;;32.50;99.90;;;;;;4987209;28;20480;-75
2023/09/24 10:42:10;;;;;;;0.10;0.10;;;32.40;99.90;;;;;;4984027;28;21146;-74
2023/09/24 10:44:40;;;;;;;0.17;0.17;;;32.50;99.90;;;;;;4986550;28;20509;-74
2023/09/24 10:47:31;;;;;;;0.10;0.10;;;32.40;99.90;;;;;;4986465;28;20406;-75
2023/09/24 10:50:13;;;;;;;0.10;0.10;;;32.40;99.90;;;;;;4976506;28;21010;-75
2023/09/24 10:53:01;;;;;;;0.10;0.10;;;32.40;99.90;;;;;;4978918;28;20418;-76
2023/09/24 10:55:30;;;;;;;0.10;0.10;;;32.40;99.90;;;;;;4980872;28;20418;-75
2023/09/24 10:58:13;;;;;;;0.10;0.10;;;32.40;99.90;;;;;;5003775;28;20417;-76
2023/09/24 11:00:45;;;;;;;0.10;0.10;;;32.40;99.90;;;;;;5020092;28;20410;-75
2023/09/24 11:03:14;;;;;;;0.10;0.10;;;32.40;99.90;;;;;;4986432;28;20465;-75
2023/09/24 11:05:41;;;;;;;0.10;0.10;;;32.40;99.90;;;;;;5003215;28;20430;-76
2023/09/24 11:08:09;;;;;;;0.10;0.10;;;32.40;99.90;;;;;;5022439;28;20405;-76
2023/09/24 11:10:36;;;;;;;0.10;0.10;;;32.40;99.90;;;;;;5002361;28;20414;-76
2023/09/24 11:13:05;;;;;;;0.20;0.20;;;32.40;99.90;;;;;;5003085;28;20733;-76
2023/09/24 11:15:38;;;;;;;0.10;0.10;;;32.40;99.90;;;;;;5002411;28;20565;-76
2023/09/24 11:18:06;;;;;;;0.10;0.10;;;32.40;99.90;;;;;;4987130;28;20417;-77
2023/09/24 16:39:05;;;;;;;0.00;0.00;;;27.70;99.90;;;;;;5087094;27;20398;-74
2023/09/24 16:41:32;;;;;;;0.00;0.00;;;27.60;99.90;;;;;;5081829;28;20416;-74
2023/09/24 16:44:00;;;;;;;0.00;0.00;;;27.60;99.90;;;;;;5071837;28;20399;-74
2023/09/24 16:46:26;;;;;;;0.00;0.00;;;27.60;99.90;;;;;;5071635;28;20422;-74
2023/09/24 16:48:52;;;;;;;0.00;0.00;;;27.60;99.90;;;;;;5069070;28;20438;-74
2023/09/24 16:51:19;;;;;;;0.00;0.00;;;27.60;99.90;;;;;;5078355;28;20471;-74
2023/09/24 16:53:45;;;;;;;0.00;0.00;;;27.60;99.90;;;;;;5065644;28;20404;-74
2023/09/24 16:56:11;;;;;;;0.00;0.00;;;27.60;99.00;;;;;;5060737;28;20454;-74
2023/09/24 16:58:39;;;;;;;0.03;0.03;;;27.50;99.00;;;;;;5061586;28;20424;-74
2023/09/24 17:01:24;;;;;;;0.00;0.00;;;27.50;98.50;;;;;;5061134;28;21222;-74
2023/09/24 17:03:51;;;;;;;0.00;0.00;;;27.50;98.20;;;;;;5054409;28;20753;-74
2023/09/24 17:06:18;;;;;;;0.00;0.00;;;27.40;97.70;;;;;;5064492;28;20435;-74
2023/09/24 17:08:45;;;;;;;0.00;0.00;;;27.30;97.30;;;;;;5075948;28;20414;-74
2023/09/24 17:11:11;;;;;;;0.00;0.00;;;27.30;97.20;;;;;;5061636;28;20856;-74
2023/09/24 17:13:40;;;;;;;0.00;0.00;;;27.20;97.00;;;;;;5061680;28;20476;-75
2023/09/24 17:16:14;;;;;;;0.00;0.00;;;27.20;96.40;;;;;;5060941;28;20843;-75
2023/09/24 17:18:40;;;;;;;0.00;0.00;;;27.10;96.00;;;;;;5056386;28;20448;-73
2023/09/24 17:21:11;;;;;;;0.00;0.00;;;27.10;95.90;;;;;;5077297;28;20432;-75
2023/09/24 17:23:41;;;;;;;0.00;0.00;;;27.10;95.00;;;;;;5080032;28;20453;-74
2023/09/24 17:26:13;;;;;;;0.00;0.00;;;27.00;95.00;;;;;;5061408;28;20428;-75
2023/09/24 17:28:40;;;;;;;0.00;0.00;;;26.90;95.40;;;;;;5080869;28;20405;-75
2023/09/24 17:31:08;;;;;;;0.00;0.00;;;26.80;94.90;;;;;;5079059;28;20918;-75
2023/09/24 17:33:36;;;;;;;0.00;0.00;;;26.70;94.90;;;;;;5038471;28;20420;-75
2023/09/24 17:36:04;;;;;;;0.00;0.00;;;26.70;94.70;;;;;;5079827;28;20419;-74
2023/09/24 17:38:32;;;;;;;0.00;0.00;;;26.60;95.00;;;;;;5086880;28;20441;-74
2023/09/24 17:40:58;;;;;;;0.00;0.00;;;26.40;95.20;;;;;;5058359;28;20409;-75
2023/09/24 17:43:25;;;;;;;0.00;0.00;;;26.40;95.70;;;;;;5059524;28;20452;-74
2023/09/24 17:46:04;;;;;;;0.00;0.00;;;26.30;95.70;;;;;;5061208;28;20436;-74
2023/09/24 18:40:23;;;;;;;0.00;0.00;;;24.90;99.90;;;;;;5083417;27;20381;-75
2023/09/24 18:42:50;;;;;;;0.00;0.00;;;24.80;99.90;;;;;;5100847;28;20478;-74
2023/09/24 18:45:16;;;;;;;0.00;0.00;;;24.80;99.90;;;;;;5078405;28;20403;-74
2023/09/24 18:47:42;;;;;;;0.00;0.00;;;24.80;99.90;;;;;;5066915;28;20411;-75
2023/09/24 18:50:09;;;;;;;0.00;0.00;;;24.80;99.90;;;;;;5080189;28;20444;-75
2023/09/24 18:52:35;;;;;;;0.00;0.00;;;24.80;99.90;;;;;;5087469;28;20457;-74
2023/09/24 18:55:02;;;;;;;0.00;0.00;;;24.90;99.90;;;;;;5077219;28;20747;-74
2023/09/24 18:57:29;;;;;;;0.00;0.00;;;24.90;99.90;;;;;;5090662;28;20421;-74
2023/09/24 18:59:59;;;;;;;0.00;0.00;;;24.90;99.90;;;;;;5067567;28;20415;-74
2023/09/24 19:02:26;;;;;;;0.00;0.00;;;24.90;99.90;;;;;;5085512;28;20447;-73
2023/09/24 19:04:54;;;;;;;0.00;0.00;;;24.90;99.90;;;;;;5075045;28;20411;-74
2023/09/24 19:07:21;;;;;;;0.00;0.00;;;24.90;99.90;;;;;;5083539;28;20841;-75
2023/09/24 19:09:48;;;;;;;0.00;0.00;;;24.90;99.90;;;;;;5082943;28;20423;-74
2023/09/24 19:12:20;;;;;;;0.00;0.00;;;24.90;99.90;;;;;;5095580;28;20449;-75
2023/09/24 19:14:46;;;;;;;0.00;0.00;;;24.90;99.90;;;;;;5062324;28;20474;-74
2023/09/24 19:17:15;;;;;;;0.00;0.00;;;24.90;99.90;;;;;;5067932;28;20417;-74